createdAt,value
2019-05-07T00:00:36.944Z,994.48
2019-05-07T00:01:36.943Z,994.48
2019-05-07T00:02:36.927Z,994.47
2019-05-07T00:03:36.919Z,994.42
2019-05-07T00:04:36.907Z,994.40
2019-05-07T00:05:36.891Z,994.43
2019-05-07T00:06:36.891Z,994.42
2019-05-07T00:07:36.873Z,994.35
2019-05-07T00:08:36.860Z,994.44
2019-05-07T00:09:36.848Z,994.35
2019-05-07T00:10:36.841Z,994.38
2019-05-07T00:11:36.838Z,994.36
2019-05-07T00:12:36.816Z,994.37
2019-05-07T00:13:36.810Z,994.38
2019-05-07T00:14:36.803Z,994.34
2019-05-07T00:15:36.784Z,994.40
2019-05-07T00:16:36.789Z,994.33
2019-05-07T00:17:36.774Z,994.33
2019-05-07T00:18:36.776Z,994.31
2019-05-07T00:19:36.740Z,994.33
2019-05-07T00:20:36.729Z,994.31
2019-05-07T00:21:36.732Z,994.32
2019-05-07T00:22:36.710Z,994.26
2019-05-07T00:23:36.699Z,994.30
2019-05-07T00:24:36.687Z,994.29
2019-05-07T00:25:36.676Z,994.22
2019-05-07T00:26:36.676Z,994.26
2019-05-07T00:27:36.654Z,994.21
2019-05-07T00:28:36.657Z,994.17
2019-05-07T00:29:36.634Z,994.24
2019-05-07T00:30:36.623Z,994.21
2019-05-07T00:31:36.624Z,994.16
2019-05-07T00:32:36.600Z,994.12
2019-05-07T00:33:36.591Z,994.10
2019-05-07T00:34:36.593Z,994.07
2019-05-07T00:35:36.570Z,994.09
2019-05-07T00:36:36.569Z,994.11
2019-05-07T00:37:36.557Z,994.07
2019-05-07T00:38:36.536Z,994.05
2019-05-07T00:39:36.541Z,994.08
2019-05-07T00:40:36.524Z,994.00
2019-05-07T00:41:36.515Z,994.02
2019-05-07T00:42:36.496Z,994.02
2019-05-07T00:43:36.486Z,994.00
2019-05-07T00:44:36.473Z,994.00
2019-05-07T00:45:36.463Z,993.98
2019-05-07T00:46:36.473Z,994.00
2019-05-07T00:47:36.440Z,993.98
2019-05-07T00:48:36.429Z,993.94
2019-05-07T00:49:36.419Z,993.98
2019-05-07T00:50:36.407Z,993.94
2019-05-07T00:51:36.408Z,994.02
2019-05-07T00:52:36.392Z,993.98
2019-05-07T00:53:36.379Z,993.96
2019-05-07T00:54:36.366Z,993.96
2019-05-07T00:55:36.356Z,993.92
2019-05-07T00:56:36.354Z,993.92
2019-05-07T00:57:36.334Z,993.92
2019-05-07T00:58:36.329Z,993.88
2019-05-07T00:59:36.313Z,993.91
2019-05-07T01:00:36.308Z,993.90
2019-05-07T01:01:36.347Z,993.89
2019-05-07T01:02:36.287Z,993.93
2019-05-07T01:03:36.269Z,993.94
2019-05-07T01:04:36.268Z,993.89
2019-05-07T01:05:36.247Z,993.92
2019-05-07T01:06:36.239Z,993.90
2019-05-07T01:07:36.245Z,993.88
2019-05-07T01:08:36.216Z,993.85
2019-05-07T01:09:36.205Z,993.83
2019-05-07T01:10:36.208Z,993.86
2019-05-07T01:11:36.185Z,993.86
2019-05-07T01:12:36.191Z,993.88
2019-05-07T01:13:36.163Z,993.81
2019-05-07T01:14:36.153Z,993.79
2019-05-07T01:15:36.142Z,993.82
2019-05-07T01:16:36.159Z,993.81
2019-05-07T01:17:36.137Z,993.77
2019-05-07T01:18:36.112Z,993.86
2019-05-07T01:19:36.113Z,993.77
2019-05-07T01:20:36.089Z,993.82
2019-05-07T01:21:36.078Z,993.82
2019-05-07T01:22:36.087Z,993.78
2019-05-07T01:23:36.057Z,993.79
2019-05-07T01:24:36.056Z,993.79
2019-05-07T01:25:36.049Z,993.91
2019-05-07T01:26:36.027Z,993.88
2019-05-07T01:27:36.026Z,993.84
2019-05-07T01:28:36.014Z,993.88
2019-05-07T01:29:35.994Z,993.84
2019-05-07T01:30:35.985Z,993.77
2019-05-07T01:31:35.982Z,993.79
2019-05-07T01:32:35.983Z,993.75
2019-05-07T01:33:35.953Z,993.83
2019-05-07T01:34:35.948Z,993.78
2019-05-07T01:35:35.933Z,993.83
2019-05-07T01:36:35.931Z,993.84
2019-05-07T01:37:35.938Z,993.79
2019-05-07T01:38:35.900Z,993.81
2019-05-07T01:39:35.891Z,993.77
2019-05-07T01:40:35.891Z,993.75
2019-05-07T01:41:35.869Z,993.79
2019-05-07T01:42:36.684Z,993.76
2019-05-07T01:43:35.873Z,993.75
2019-05-07T01:44:35.846Z,993.77
2019-05-07T01:45:45.408Z,993.74
2019-05-07T01:46:36.835Z,993.75
2019-05-07T01:47:35.806Z,993.74
2019-05-07T01:48:35.812Z,993.72
2019-05-07T01:49:35.792Z,993.73
2019-05-07T01:50:35.787Z,993.75
2019-05-07T01:51:35.763Z,993.75
2019-05-07T01:52:35.768Z,993.79
2019-05-07T01:53:35.758Z,993.70
2019-05-07T01:54:35.748Z,993.72
2019-05-07T01:55:35.743Z,993.71
2019-05-07T01:56:35.720Z,993.74
2019-05-07T01:57:35.701Z,993.70
2019-05-07T01:58:35.707Z,993.76
2019-05-07T01:59:35.683Z,993.65
2019-05-07T02:00:35.670Z,993.66
2019-05-07T02:01:36.007Z,993.65
2019-05-07T02:02:35.656Z,993.66
2019-05-07T02:03:35.648Z,993.66
2019-05-07T02:04:35.634Z,993.64
2019-05-07T02:05:35.616Z,993.67
2019-05-07T02:06:35.610Z,993.58
2019-05-07T02:07:35.614Z,993.69
2019-05-07T02:08:35.618Z,993.65
2019-05-07T02:09:35.573Z,993.67
2019-05-07T02:10:35.562Z,993.61
2019-05-07T02:11:35.552Z,993.62
2019-05-07T02:12:35.547Z,993.68
2019-05-07T02:13:35.564Z,993.65
2019-05-07T02:14:35.527Z,993.65
2019-05-07T02:15:35.511Z,993.67
2019-05-07T02:16:35.509Z,993.67
2019-05-07T02:17:35.490Z,993.68
2019-05-07T02:18:35.480Z,993.63
2019-05-07T02:19:35.480Z,993.65
2019-05-07T02:20:35.467Z,993.65
2019-05-07T02:21:35.448Z,993.66
2019-05-07T02:22:35.438Z,993.78
2019-05-07T02:23:35.426Z,993.76
2019-05-07T02:24:35.442Z,993.76
2019-05-07T02:25:35.406Z,993.76
2019-05-07T02:26:35.399Z,993.83
2019-05-07T02:27:35.384Z,993.78
2019-05-07T02:28:35.374Z,993.77
2019-05-07T02:29:38.124Z,993.83
2019-05-07T02:30:35.501Z,993.83
2019-05-07T02:31:35.344Z,993.84
2019-05-07T02:32:35.337Z,993.80
2019-05-07T02:33:35.382Z,993.81
2019-05-07T02:34:35.315Z,993.87
2019-05-07T02:35:35.333Z,993.96
2019-05-07T02:36:35.290Z,993.87
2019-05-07T02:37:47.246Z,993.90
2019-05-07T02:38:36.276Z,993.86
2019-05-07T02:39:35.293Z,993.85
2019-05-07T02:40:35.247Z,993.84
2019-05-07T02:41:35.249Z,993.86
2019-05-07T02:42:35.228Z,993.86
2019-05-07T02:43:35.218Z,993.91
2019-05-07T02:44:35.210Z,993.84
2019-05-07T02:45:35.195Z,993.85
2019-05-07T02:46:36.458Z,993.84
2019-05-07T02:47:35.173Z,993.87
2019-05-07T02:48:35.162Z,993.86
2019-05-07T02:49:35.152Z,993.83
2019-05-07T02:50:35.151Z,993.80
2019-05-07T02:51:35.133Z,993.76
2019-05-07T02:52:35.133Z,993.85
2019-05-07T02:53:35.110Z,993.78
2019-05-07T02:54:35.098Z,993.79
2019-05-07T02:55:35.098Z,993.77
2019-05-07T02:56:35.100Z,993.79
2019-05-07T02:57:35.135Z,993.77
2019-05-07T02:58:35.060Z,993.79
2019-05-07T02:59:35.046Z,993.84
2019-05-07T03:00:35.036Z,993.82
2019-05-07T03:01:35.025Z,993.82
2019-05-07T03:02:35.029Z,993.83
2019-05-07T03:03:35.015Z,993.83
2019-05-07T03:04:34.994Z,993.85
2019-05-07T03:05:35.305Z,993.82
2019-05-07T03:06:34.971Z,993.84
2019-05-07T03:07:34.962Z,993.82
2019-05-07T03:08:34.987Z,993.88
2019-05-07T03:09:34.941Z,993.87
2019-05-07T03:10:34.936Z,993.86
2019-05-07T03:11:34.920Z,993.94
2019-05-07T03:12:34.910Z,993.96
2019-05-07T03:13:34.897Z,993.92
2019-05-07T03:14:34.908Z,994.01
2019-05-07T03:15:34.877Z,994.04
2019-05-07T03:16:42.484Z,994.02
2019-05-07T03:17:35.858Z,994.08
2019-05-07T03:18:34.846Z,994.04
2019-05-07T03:19:34.849Z,994.05
2019-05-07T03:20:34.839Z,994.11
2019-05-07T03:21:34.823Z,994.04
2019-05-07T03:22:34.802Z,994.09
2019-05-07T03:23:34.812Z,994.11
2019-05-07T03:24:34.831Z,994.11
2019-05-07T03:25:34.801Z,994.11
2019-05-07T03:26:34.763Z,994.11
2019-05-07T03:27:34.768Z,994.10
2019-05-07T03:28:34.741Z,994.10
2019-05-07T03:29:34.730Z,994.12
2019-05-07T03:30:36.265Z,994.14
2019-05-07T03:31:36.146Z,994.11
2019-05-07T03:32:38.158Z,994.17
2019-05-07T03:33:36.624Z,994.13
2019-05-07T03:34:36.978Z,994.18
2019-05-07T03:35:37.186Z,994.19
2019-05-07T03:36:35.509Z,994.19
2019-05-07T03:37:36.393Z,994.22
2019-05-07T03:38:34.637Z,994.22
2019-05-07T03:39:34.631Z,994.18
2019-05-07T03:40:34.624Z,994.26
2019-05-07T03:41:34.604Z,994.31
2019-05-07T03:44:03.639Z,994.27
2019-05-07T03:52:13.656Z,994.36
2019-05-07T03:58:14.582Z,994.38
2019-05-07T04:13:34.316Z,994.32
2019-05-07T04:14:42.894Z,994.30
2019-05-07T04:17:13.121Z,994.36
2019-05-07T05:13:20.142Z,994.08
2019-05-07T05:14:13.694Z,994.13
2019-05-07T05:15:12.662Z,994.15
2019-05-07T05:16:12.595Z,994.08
2019-05-07T05:17:12.990Z,994.09
2019-05-07T05:18:12.705Z,994.04
2019-05-07T05:19:12.579Z,994.03
2019-05-07T05:20:13.132Z,994.06
2019-05-07T05:21:12.080Z,994.06
2019-05-07T05:22:12.795Z,993.96
2019-05-07T05:23:12.109Z,994.00
2019-05-07T05:24:12.617Z,993.98
2019-05-07T05:25:12.127Z,994.03
2019-05-07T05:26:12.529Z,994.05
2019-05-07T05:27:12.215Z,994.04
2019-05-07T05:28:12.382Z,994.00
2019-05-07T05:29:12.110Z,994.03
2019-05-07T05:30:12.469Z,994.06
2019-05-07T05:31:12.648Z,994.03
2019-05-07T05:32:12.002Z,994.05
2019-05-07T05:33:12.596Z,994.08
2019-05-07T05:34:12.956Z,994.06
2019-05-07T05:35:12.640Z,994.10
2019-05-07T05:36:12.661Z,994.09
2019-05-07T05:37:11.954Z,994.06
2019-05-07T05:38:12.688Z,994.04
2019-05-07T05:39:13.037Z,994.08
2019-05-07T05:40:12.328Z,994.06
2019-05-07T05:41:12.359Z,994.05
2019-05-07T05:42:11.859Z,994.02
2019-05-07T05:43:12.700Z,994.03
2019-05-07T05:44:11.875Z,994.03
2019-05-07T05:45:12.392Z,994.05
2019-05-07T05:46:12.140Z,994.12
2019-05-07T05:47:11.954Z,994.13
2019-05-07T05:48:13.347Z,994.11
2019-05-07T05:49:12.145Z,994.05
2019-05-07T05:50:13.498Z,994.03
2019-05-07T05:51:11.877Z,994.10
2019-05-07T05:52:12.462Z,994.10
2019-05-07T05:53:12.252Z,994.10
2019-05-07T05:54:12.673Z,994.12
2019-05-07T05:55:11.989Z,994.09
2019-05-07T05:56:11.982Z,994.09
2019-05-07T05:57:12.249Z,994.07
2019-05-07T05:58:12.224Z,994.15
2019-05-07T05:59:12.122Z,994.11
2019-05-07T06:00:12.631Z,994.19
2019-05-07T06:01:12.956Z,994.13
2019-05-07T06:02:12.122Z,994.05
2019-05-07T06:03:11.914Z,994.05
2019-05-07T06:04:12.461Z,994.04
2019-05-07T06:05:12.491Z,994.07
2019-05-07T06:06:12.672Z,994.03
2019-05-07T06:07:12.244Z,994.05
2019-05-07T06:08:12.471Z,994.01
2019-05-07T06:09:12.326Z,994.02
2019-05-07T06:10:12.721Z,994.03
2019-05-07T06:11:11.857Z,993.94
2019-05-07T06:12:12.546Z,993.93
2019-05-07T06:13:12.395Z,994.07
2019-05-07T06:14:10.476Z,994.00
2019-05-07T06:15:12.539Z,993.97
2019-05-07T06:16:12.438Z,993.99
2019-05-07T06:17:12.801Z,993.96
2019-05-07T06:18:20.431Z,993.92
2019-05-07T06:19:12.965Z,993.96
2019-05-07T06:20:12.205Z,993.93
2019-05-07T06:21:12.468Z,993.95
2019-05-07T06:22:12.649Z,993.96
2019-05-07T06:23:12.693Z,993.91
2019-05-07T06:24:11.892Z,993.99
2019-05-07T06:25:10.416Z,993.91
2019-05-07T06:26:12.712Z,993.90
2019-05-07T06:27:12.266Z,993.90
2019-05-07T06:28:12.488Z,993.87
2019-05-07T06:29:11.912Z,993.90
2019-05-07T06:30:12.038Z,993.91
2019-05-07T06:31:12.461Z,993.89
2019-05-07T06:32:12.110Z,993.90
2019-05-07T06:33:12.351Z,993.81
2019-05-07T06:34:12.272Z,993.85
2019-05-07T06:35:12.305Z,993.82
2019-05-07T06:36:12.372Z,993.80
2019-05-07T06:37:11.857Z,993.74
2019-05-07T06:38:12.293Z,993.87
2019-05-07T06:39:12.474Z,993.86
2019-05-07T06:40:12.136Z,993.75
2019-05-07T06:41:12.151Z,993.77
2019-05-07T06:42:12.546Z,993.73
2019-05-07T06:43:12.296Z,993.73
2019-05-07T06:44:10.167Z,993.78
2019-05-07T06:45:12.244Z,993.74
2019-05-07T06:46:12.424Z,993.81
2019-05-07T06:47:10.120Z,993.70
2019-05-07T06:48:12.482Z,993.73
2019-05-07T06:49:10.099Z,993.74
2019-05-07T06:50:12.379Z,993.72
2019-05-07T06:51:12.416Z,993.74
2019-05-07T06:52:12.130Z,993.72
2019-05-07T06:53:12.032Z,993.70
2019-05-07T06:54:10.042Z,993.70
2019-05-07T06:55:12.078Z,993.65
2019-05-07T06:56:12.050Z,993.72
2019-05-07T06:57:10.007Z,993.71
2019-05-07T06:58:12.117Z,993.70
2019-05-07T06:59:09.992Z,993.67
2019-05-07T07:00:11.901Z,993.69
2019-05-07T07:01:12.061Z,993.66
2019-05-07T07:02:09.985Z,993.72
2019-05-07T07:03:09.954Z,993.74
2019-05-07T07:04:09.932Z,993.66
2019-05-07T07:05:12.003Z,993.75
2019-05-07T07:06:12.024Z,993.71
2019-05-07T07:07:24.060Z,993.77
2019-05-07T07:08:12.455Z,993.80
2019-05-07T07:09:09.896Z,993.70
2019-05-07T07:10:11.891Z,993.70
2019-05-07T07:11:09.857Z,993.71
2019-05-07T07:12:09.842Z,993.72
2019-05-07T07:13:11.846Z,993.67
2019-05-07T07:14:11.450Z,993.68
2019-05-07T07:15:12.076Z,993.64
2019-05-07T07:16:09.799Z,993.61
2019-05-07T07:17:09.789Z,993.57
2019-05-07T07:18:12.142Z,993.62
2019-05-07T07:19:09.768Z,993.71
2019-05-07T07:20:09.760Z,993.68
2019-05-07T07:21:12.254Z,993.61
2019-05-07T07:22:09.734Z,993.63
2019-05-07T07:23:11.766Z,993.61
2019-05-07T07:24:09.721Z,993.59
2019-05-07T07:25:11.755Z,993.57
2019-05-07T07:26:09.690Z,993.59
2019-05-07T07:27:09.703Z,993.59
2019-05-07T07:28:09.669Z,993.62
2019-05-07T07:29:09.668Z,993.62
2019-05-07T07:30:09.648Z,993.65
2019-05-07T07:31:09.659Z,993.60
2019-05-07T07:32:09.626Z,993.67
2019-05-07T07:33:12.029Z,993.61
2019-05-07T07:34:09.613Z,993.60
2019-05-07T07:35:09.597Z,993.62
2019-05-07T07:36:11.906Z,993.62
2019-05-07T07:37:13.498Z,993.57
2019-05-07T07:38:11.808Z,993.61
2019-05-07T07:39:09.564Z,993.70
2019-05-07T07:40:09.540Z,993.64
2019-05-07T07:41:09.526Z,993.60
2019-05-07T07:42:09.516Z,993.56
2019-05-07T07:43:09.526Z,993.58
2019-05-07T07:44:09.503Z,993.56
2019-05-07T07:45:09.483Z,993.49
2019-05-07T07:46:09.475Z,993.49
2019-05-07T07:47:09.462Z,993.53
2019-05-07T07:48:09.451Z,993.52
2019-05-07T07:49:14.065Z,993.55
2019-05-07T07:50:12.827Z,993.51
2019-05-07T07:51:09.413Z,993.50
2019-05-07T07:52:09.408Z,993.45
2019-05-07T07:53:09.401Z,993.49
2019-05-07T07:54:09.406Z,993.45
2019-05-07T07:55:09.372Z,993.40
2019-05-07T07:56:09.382Z,993.44
2019-05-07T07:57:09.354Z,993.37
2019-05-07T07:58:09.340Z,993.38
2019-05-07T07:59:09.346Z,993.36
2019-05-07T08:00:09.327Z,993.38
2019-05-07T08:01:09.311Z,993.34
2019-05-07T08:02:09.299Z,993.25
2019-05-07T08:03:09.364Z,993.28
2019-05-07T08:04:09.296Z,993.28
2019-05-07T08:05:09.281Z,993.26
2019-05-07T08:06:09.251Z,993.23
2019-05-07T08:07:09.242Z,993.27
2019-05-07T08:08:09.231Z,993.26
2019-05-07T08:09:09.247Z,993.24
2019-05-07T08:10:09.215Z,993.30
2019-05-07T08:11:09.264Z,993.29
2019-05-07T08:12:09.195Z,993.25
2019-05-07T08:13:09.175Z,993.16
2019-05-07T08:14:09.173Z,993.17
2019-05-07T08:15:17.249Z,993.13
2019-05-07T08:16:10.149Z,993.09
2019-05-07T08:17:09.167Z,993.08
2019-05-07T08:18:09.161Z,993.00
2019-05-07T08:19:21.368Z,992.97
2019-05-07T08:20:10.119Z,992.87
2019-05-07T08:21:09.093Z,992.84
2019-05-07T08:22:09.091Z,992.86
2019-05-07T08:23:09.068Z,992.79
2019-05-07T08:24:09.080Z,992.75
2019-05-07T08:25:09.051Z,992.81
2019-05-07T08:26:09.033Z,992.78
2019-05-07T08:27:09.028Z,992.83
2019-05-07T08:28:09.017Z,992.82
2019-05-07T08:29:09.004Z,992.77
2019-05-07T08:30:09.001Z,992.82
2019-05-07T08:31:08.983Z,992.73
2019-05-07T08:32:08.968Z,992.75
2019-05-07T08:33:09.820Z,992.78
2019-05-07T08:34:08.951Z,992.75
2019-05-07T08:35:08.952Z,992.66
2019-05-07T08:36:08.932Z,992.73
2019-05-07T08:37:08.920Z,992.70
2019-05-07T08:38:08.913Z,992.73
2019-05-07T08:39:08.913Z,992.73
2019-05-07T08:40:08.887Z,992.69
2019-05-07T08:41:08.868Z,992.67
2019-05-07T08:42:08.858Z,992.63
2019-05-07T08:43:08.853Z,992.63
2019-05-07T08:44:12.299Z,992.58
2019-05-07T08:45:11.841Z,992.57
2019-05-07T08:46:08.877Z,992.62
2019-05-07T08:47:08.805Z,992.63
2019-05-07T08:48:08.792Z,992.63
2019-05-07T08:49:08.779Z,992.63
2019-05-07T08:50:08.779Z,992.64
2019-05-07T08:51:08.765Z,992.62
2019-05-07T08:52:08.820Z,992.57
2019-05-07T08:53:08.746Z,992.64
2019-05-07T08:54:08.726Z,992.64
2019-05-07T08:55:08.725Z,992.57
2019-05-07T08:56:08.710Z,992.58
2019-05-07T08:57:08.706Z,992.55
2019-05-07T08:58:08.690Z,992.55
2019-05-07T08:59:08.734Z,992.53
2019-05-07T09:00:08.684Z,992.55
2019-05-07T09:01:08.651Z,992.52
2019-05-07T09:02:08.642Z,992.45
2019-05-07T09:03:19.302Z,992.46
2019-05-07T09:04:09.616Z,992.41
2019-05-07T09:05:09.315Z,992.41
2019-05-07T09:06:08.606Z,992.42
2019-05-07T09:07:08.583Z,992.40
2019-05-07T09:08:08.580Z,992.49
2019-05-07T09:09:08.565Z,992.46
2019-05-07T09:10:08.563Z,992.42
2019-05-07T09:11:08.577Z,992.48
2019-05-07T09:12:08.531Z,992.48
2019-05-07T09:13:08.522Z,992.44
2019-05-07T09:14:08.508Z,992.40
2019-05-07T09:15:08.499Z,992.46
2019-05-07T09:16:08.502Z,992.38
2019-05-07T09:17:08.519Z,992.36
2019-05-07T09:18:08.469Z,992.33
2019-05-07T09:19:08.469Z,992.37
2019-05-07T09:20:09.274Z,992.32
2019-05-07T09:21:08.467Z,992.28
2019-05-07T09:22:08.468Z,992.25
2019-05-07T09:23:08.408Z,992.25
2019-05-07T09:24:08.418Z,992.28
2019-05-07T09:25:08.385Z,992.14
2019-05-07T09:26:08.386Z,992.15
2019-05-07T09:27:08.364Z,992.15
2019-05-07T09:28:08.361Z,992.14
2019-05-07T09:29:08.346Z,992.14
2019-05-07T09:30:08.333Z,992.18
2019-05-07T09:31:08.368Z,992.10
2019-05-07T09:32:08.331Z,992.14
2019-05-07T09:33:08.342Z,992.27
2019-05-07T09:34:08.291Z,992.19
2019-05-07T09:35:08.278Z,992.26
2019-05-07T09:36:08.293Z,992.27
2019-05-07T09:37:08.256Z,992.28
2019-05-07T09:38:08.287Z,992.28
2019-05-07T09:39:08.329Z,992.24
2019-05-07T09:40:08.230Z,992.27
2019-05-07T09:41:08.228Z,992.16
2019-05-07T09:42:08.202Z,992.19
2019-05-07T09:43:08.190Z,992.19
2019-05-07T09:44:08.179Z,992.19
2019-05-07T09:45:08.262Z,992.17
2019-05-07T09:46:08.199Z,992.18
2019-05-07T09:47:08.148Z,992.19
2019-05-07T09:48:08.141Z,992.11
2019-05-07T09:49:08.123Z,992.04
2019-05-07T09:50:08.985Z,992.04
2019-05-07T09:51:08.114Z,992.06
2019-05-07T09:52:08.108Z,992.08
2019-05-07T09:53:08.084Z,992.05
2019-05-07T09:54:08.074Z,992.07
2019-05-07T09:55:14.856Z,992.11
2019-05-07T09:56:09.069Z,992.04
2019-05-07T09:57:22.743Z,992.06
2019-05-07T09:58:09.034Z,992.09
2019-05-07T09:59:08.050Z,992.05
2019-05-07T10:00:08.010Z,992.13
2019-05-07T10:01:08.024Z,992.15
2019-05-07T10:02:07.989Z,992.07
2019-05-07T10:03:07.974Z,992.05
2019-05-07T10:04:07.965Z,992.03
2019-05-07T10:05:07.956Z,992.03
2019-05-07T10:06:07.969Z,992.07
2019-05-07T10:07:07.941Z,991.98
2019-05-07T10:08:07.920Z,991.99
2019-05-07T10:09:07.910Z,992.07
2019-05-07T10:10:07.899Z,991.98
2019-05-07T10:11:07.891Z,992.05
2019-05-07T10:12:07.907Z,991.93
2019-05-07T10:13:07.903Z,992.01
2019-05-07T10:14:07.858Z,992.06
2019-05-07T10:15:07.848Z,992.01
2019-05-07T10:16:07.937Z,991.99
2019-05-07T10:17:07.843Z,991.97
2019-05-07T10:18:07.810Z,991.97
2019-05-07T10:19:07.811Z,992.03
2019-05-07T10:20:19.292Z,992.02
2019-05-07T10:21:08.808Z,991.94
2019-05-07T10:22:07.781Z,991.95
2019-05-07T10:23:07.758Z,992.02
2019-05-07T10:24:07.749Z,992.00
2019-05-07T10:25:07.736Z,991.96
2019-05-07T10:26:07.729Z,992.03
2019-05-07T10:27:07.758Z,991.96
2019-05-07T10:28:07.706Z,991.90
2019-05-07T10:29:07.696Z,991.84
2019-05-07T10:30:07.682Z,991.77
2019-05-07T10:31:07.678Z,991.80
2019-05-07T10:32:07.676Z,991.82
2019-05-07T10:33:07.699Z,991.76
2019-05-07T10:34:07.680Z,991.78
2019-05-07T10:35:07.634Z,991.79
2019-05-07T10:36:07.620Z,991.69
2019-05-07T10:37:07.619Z,991.82
2019-05-07T10:38:07.598Z,991.80
2019-05-07T10:39:07.593Z,991.76
2019-05-07T10:40:07.597Z,991.78
2019-05-07T10:41:07.591Z,991.70
2019-05-07T10:42:07.579Z,991.74
2019-05-07T10:43:07.549Z,991.76
2019-05-07T10:44:07.553Z,991.68
2019-05-07T10:45:07.537Z,991.57
2019-05-07T10:46:07.514Z,991.53
2019-05-07T10:47:07.591Z,991.61
2019-05-07T10:48:07.527Z,991.58
2019-05-07T10:49:07.509Z,991.51
2019-05-07T10:50:07.473Z,991.51
2019-05-07T10:51:07.466Z,991.50
2019-05-07T10:52:07.450Z,991.51
2019-05-07T10:53:07.453Z,991.56
2019-05-07T10:54:07.440Z,991.58
2019-05-07T10:55:07.438Z,991.57
2019-05-07T10:56:07.408Z,991.53
2019-05-07T10:57:07.421Z,991.53
2019-05-07T10:58:07.415Z,991.52
2019-05-07T10:59:07.419Z,991.48
2019-05-07T11:00:07.386Z,991.47
2019-05-07T11:01:07.357Z,991.49
2019-05-07T11:02:07.398Z,991.49
2019-05-07T11:03:07.355Z,991.46
2019-05-07T11:04:07.327Z,991.42
2019-05-07T11:05:07.316Z,991.41
2019-05-07T11:06:07.308Z,991.40
2019-05-07T11:07:07.342Z,991.43
2019-05-07T11:08:07.297Z,991.39
2019-05-07T11:09:07.287Z,991.44
2019-05-07T11:10:07.264Z,991.39
2019-05-07T11:11:07.256Z,991.48
2019-05-07T11:12:07.248Z,991.42
2019-05-07T11:13:07.265Z,991.40
2019-05-07T11:14:07.225Z,991.41
2019-05-07T11:15:07.226Z,991.34
2019-05-07T11:16:07.217Z,991.34
2019-05-07T11:17:07.197Z,991.33
2019-05-07T11:18:07.197Z,991.30
2019-05-07T11:19:07.181Z,991.29
2019-05-07T11:20:07.211Z,991.30
2019-05-07T11:21:07.158Z,991.27
2019-05-07T11:22:07.148Z,991.30
2019-05-07T11:23:07.146Z,991.29
2019-05-07T11:24:07.141Z,991.31
2019-05-07T11:25:07.127Z,991.26
2019-05-07T11:26:07.127Z,991.23
2019-05-07T11:27:07.091Z,991.27
2019-05-07T11:28:07.098Z,991.17
2019-05-07T11:29:07.186Z,991.17
2019-05-07T11:30:07.086Z,991.26
2019-05-07T11:31:07.057Z,991.19
2019-05-07T11:32:07.054Z,991.14
2019-05-07T11:33:07.207Z,991.08
2019-05-07T11:34:07.037Z,991.06
2019-05-07T11:35:07.018Z,991.10
2019-05-07T11:36:07.062Z,991.13
2019-05-07T11:37:06.995Z,991.11
2019-05-07T11:38:18.728Z,991.09
2019-05-07T11:39:08.097Z,991.05
2019-05-07T11:40:06.970Z,991.11
2019-05-07T11:41:06.954Z,991.03
2019-05-07T11:42:06.967Z,991.03
2019-05-07T11:43:06.955Z,990.94
2019-05-07T11:44:06.963Z,990.77
2019-05-07T11:45:06.910Z,990.97
2019-05-07T11:46:06.910Z,990.98
2019-05-07T11:47:06.892Z,990.95
2019-05-07T11:48:06.886Z,990.96
2019-05-07T11:49:06.952Z,990.91
2019-05-07T11:50:06.859Z,990.93
2019-05-07T11:51:06.853Z,990.93
2019-05-07T11:52:06.842Z,990.89
2019-05-07T11:53:06.829Z,990.88
2019-05-07T11:54:06.834Z,990.85
2019-05-07T11:55:06.819Z,990.84
2019-05-07T11:56:06.800Z,990.90
2019-05-07T11:57:06.794Z,990.82
2019-05-07T11:58:06.792Z,990.85
2019-05-07T11:59:06.779Z,990.82
2019-05-07T12:00:06.760Z,990.84
2019-05-07T12:01:06.749Z,990.83
2019-05-07T12:02:06.791Z,990.82
2019-05-07T12:03:06.742Z,990.84
2019-05-07T12:04:06.756Z,990.85
2019-05-07T12:05:06.711Z,990.81
2019-05-07T12:06:06.704Z,990.79
2019-05-07T12:07:06.708Z,990.75
2019-05-07T12:08:06.683Z,990.78
2019-05-07T12:09:06.697Z,990.77
2019-05-07T12:10:06.665Z,990.71
2019-05-07T12:11:06.686Z,990.74
2019-05-07T12:12:06.713Z,990.71
2019-05-07T12:13:06.629Z,990.79
2019-05-07T12:14:06.678Z,990.76
2019-05-07T12:15:06.654Z,990.70
2019-05-07T12:16:06.652Z,990.66
2019-05-07T12:17:06.607Z,990.72
2019-05-07T12:18:06.582Z,990.67
2019-05-07T12:19:06.668Z,990.65
2019-05-07T12:20:06.558Z,990.66
2019-05-07T12:21:17.487Z,990.57
2019-05-07T12:22:07.603Z,990.56
2019-05-07T12:23:06.530Z,990.59
2019-05-07T12:24:06.526Z,990.52
2019-05-07T12:25:06.519Z,990.45
2019-05-07T12:26:06.503Z,990.50
2019-05-07T12:27:06.518Z,990.48
2019-05-07T12:28:06.483Z,990.49
2019-05-07T12:29:06.477Z,990.53
2019-05-07T12:30:06.516Z,990.53
2019-05-07T12:31:06.448Z,990.48
2019-05-07T12:32:06.440Z,990.51
2019-05-07T12:33:06.486Z,990.51
2019-05-07T12:34:06.464Z,990.40
2019-05-07T12:35:06.404Z,990.55
2019-05-07T12:36:06.395Z,990.48
2019-05-07T12:37:06.394Z,990.43
2019-05-07T12:38:06.376Z,990.35
2019-05-07T12:39:06.366Z,990.40
2019-05-07T12:40:06.463Z,990.38
2019-05-07T12:41:06.349Z,990.39
2019-05-07T12:42:06.335Z,990.33
2019-05-07T12:43:06.339Z,990.34
2019-05-07T12:44:06.322Z,990.32
2019-05-07T12:45:06.371Z,990.33
2019-05-07T12:46:06.294Z,990.37
2019-05-07T12:47:06.285Z,990.30
2019-05-07T12:48:06.274Z,990.35
2019-05-07T12:49:06.271Z,990.34
2019-05-07T12:50:06.357Z,990.31
2019-05-07T12:51:06.263Z,990.28
2019-05-07T12:52:06.230Z,990.24
2019-05-07T12:53:06.221Z,990.20
2019-05-07T12:54:06.215Z,990.10
2019-05-07T12:55:06.211Z,990.16
2019-05-07T12:56:06.190Z,990.15
2019-05-07T12:57:06.216Z,990.13
2019-05-07T12:58:06.168Z,990.11
2019-05-07T12:59:06.160Z,990.14
2019-05-07T13:00:06.191Z,990.02
2019-05-07T13:01:06.139Z,990.08
2019-05-07T13:02:17.826Z,990.13
2019-05-07T13:03:07.119Z,990.07
2019-05-07T13:04:06.145Z,990.05
2019-05-07T13:05:06.112Z,990.03
2019-05-07T13:06:06.083Z,990.01
2019-05-07T13:07:06.073Z,990.06
2019-05-07T13:08:06.065Z,990.05
2019-05-07T13:09:06.051Z,989.99
2019-05-07T13:10:08.491Z,990.07
2019-05-07T13:11:06.077Z,990.05
2019-05-07T13:12:06.016Z,990.02
2019-05-07T13:13:06.005Z,990.04
2019-05-07T13:14:06.004Z,989.94
2019-05-07T13:15:06.009Z,990.01
2019-05-07T13:16:05.973Z,990.01
2019-05-07T13:17:05.965Z,990.01
2019-05-07T13:18:05.999Z,989.96
2019-05-07T13:19:05.941Z,990.04
2019-05-07T13:20:05.963Z,989.96
2019-05-07T13:21:05.935Z,989.97
2019-05-07T13:22:05.907Z,989.98
2019-05-07T13:23:05.908Z,989.97
2019-05-07T13:24:05.890Z,989.96
2019-05-07T13:25:05.898Z,989.99
2019-05-07T13:26:05.869Z,989.95
2019-05-07T13:27:05.869Z,989.88
2019-05-07T13:28:05.852Z,989.95
2019-05-07T13:29:05.946Z,989.92
2019-05-07T13:33:12.321Z,989.87
2019-05-07T13:34:07.868Z,989.83
2019-05-07T13:35:12.326Z,989.79
2019-05-07T13:35:45.888Z,989.79
2019-05-07T13:36:45.884Z,989.79
2019-05-07T13:37:45.871Z,989.76
2019-05-07T13:38:45.867Z,989.81
2019-05-07T13:39:45.903Z,989.81
2019-05-07T13:40:45.850Z,989.78
2019-05-07T13:41:45.833Z,989.71
2019-05-07T13:42:45.818Z,989.75
2019-05-07T13:43:45.854Z,989.74
2019-05-07T13:44:45.809Z,989.69
2019-05-07T13:45:48.875Z,989.69
2019-05-07T13:46:45.778Z,989.65
2019-05-07T13:47:45.758Z,989.65
2019-05-07T13:48:45.879Z,989.66
2019-05-07T13:49:45.737Z,989.66
2019-05-07T13:50:45.738Z,989.52
2019-05-07T13:51:45.741Z,989.57
2019-05-07T13:52:45.715Z,989.51
2019-05-07T13:53:45.712Z,989.51
2019-05-07T13:54:45.731Z,989.48
2019-05-07T13:55:45.724Z,989.48